Time;durP1;ratioP1;P1;durP2;ratioP2;P2;SDS_P1;SDS_P2;PMS_P1;PMS_P2;Temp;Humidity;BMP_temperature;BMP_pressure;BME280_temperature;BME280_humidity;BME280_pressure;Samples;Min_cycle;Max_cycle;Signal;HPM_P1;HPM_P2
2021/01/29 00:00:10;;;;;;;10.20;6.90;;;6.20;80.50;;;;;;5064762;28;20874;-83
2021/01/29 00:02:35;;;;;;;7.77;6.70;;;6.20;80.30;;;;;;5060961;28;20028;-83
2021/01/29 00:05:01;;;;;;;7.83;6.13;;;6.20;80.20;;;;;;5076314;28;20077;-83
2021/01/29 00:07:27;;;;;;;10.93;8.73;;;6.30;80.60;;;;;;5073955;28;20024;-83
2021/01/29 00:09:54;;;;;;;10.43;7.87;;;6.20;80.20;;;;;;5059816;28;20021;-83
2021/01/29 00:12:23;;;;;;;12.30;8.63;;;6.20;80.20;;;;;;5062976;28;20514;-83
2021/01/29 00:14:48;;;;;;;11.33;8.53;;;6.10;80.70;;;;;;5066244;28;20037;-83
2021/01/29 00:17:14;;;;;;;9.87;7.63;;;6.20;80.70;;;;;;5062512;28;20031;-83
2021/01/29 00:19:41;;;;;;;10.60;7.80;;;6.20;80.90;;;;;;5056271;28;20025;-83
2021/01/29 00:22:06;;;;;;;9.63;7.37;;;6.20;80.90;;;;;;5069347;28;20029;-83
2021/01/29 00:24:32;;;;;;;6.30;5.67;;;6.20;80.90;;;;;;5070001;28;20028;-83
2021/01/29 00:26:57;;;;;;;6.17;4.90;;;6.30;80.80;;;;;;5063107;28;20479;-83
2021/01/29 00:29:23;;;;;;;10.63;8.80;;;6.30;80.40;;;;;;5057820;28;20468;-83
2021/01/29 00:31:49;;;;;;;11.53;9.97;;;6.10;80.20;;;;;;5075123;28;20047;-83
2021/01/29 00:34:15;;;;;;;21.87;7.93;;;6.10;80.60;;;;;;5058710;28;20059;-83
2021/01/29 00:36:42;;;;;;;6.90;6.20;;;6.10;81.10;;;;;;5056878;28;20418;-83
2021/01/29 00:39:08;;;;;;;8.13;6.67;;;6.20;80.70;;;;;;5073404;28;20032;-82
2021/01/29 00:41:33;;;;;;;8.10;6.00;;;6.10;80.40;;;;;;5075162;28;20029;-82
2021/01/29 00:43:59;;;;;;;8.70;6.17;;;6.10;80.60;;;;;;5061137;28;20025;-82
2021/01/29 00:46:25;;;;;;;6.67;5.63;;;6.30;80.90;;;;;;5058968;28;20176;-82
2021/01/29 00:48:50;;;;;;;6.97;5.23;;;6.40;80.50;;;;;;5056922;28;20036;-82
2021/01/29 00:51:16;;;;;;;196.90;18.00;;;6.50;80.50;;;;;;5054503;28;20577;-82
2021/01/29 00:53:43;;;;;;;7.57;6.10;;;6.40;80.00;;;;;;5056247;28;20376;-82
2021/01/29 00:56:09;;;;;;;6.70;5.70;;;6.30;80.50;;;;;;5056110;28;20390;-82
2021/01/29 00:58:35;;;;;;;6.23;4.40;;;6.30;80.60;;;;;;5072661;28;20029;-82
2021/01/29 01:01:01;;;;;;;5.93;4.17;;;6.20;80.70;;;;;;5074348;28;20124;-82
2021/01/29 01:03:27;;;;;;;4.63;4.07;;;6.20;80.60;;;;;;5063384;28;20403;-82
2021/01/29 01:05:53;;;;;;;7.97;5.30;;;6.20;80.60;;;;;;5067766;28;20033;-82
2021/01/29 01:08:19;;;;;;;6.77;5.47;;;6.20;80.40;;;;;;5067947;28;20025;-82
2021/01/29 01:10:45;;;;;;;7.87;5.07;;;6.20;80.30;;;;;;5057309;28;20021;-82
2021/01/29 01:13:11;;;;;;;8.70;5.30;;;6.20;80.10;;;;;;5061636;28;20035;-82
2021/01/29 01:15:36;;;;;;;7.13;4.93;;;6.20;80.60;;;;;;5071987;28;20040;-82
2021/01/29 01:18:05;;;;;;;6.57;5.20;;;6.20;80.40;;;;;;5070852;28;20491;-82
2021/01/29 01:20:32;;;;;;;8.27;5.77;;;6.20;80.40;;;;;;5060713;28;20044;-82
2021/01/29 01:22:58;;;;;;;6.30;4.13;;;6.20;80.30;;;;;;5061496;28;20051;-82
2021/01/29 01:25:24;;;;;;;5.37;4.50;;;6.20;80.30;;;;;;5072127;28;20174;-82
2021/01/29 01:27:50;;;;;;;4.37;3.90;;;6.20;80.20;;;;;;5061812;28;20032;-82
2021/01/29 01:30:20;;;;;;;4.60;3.87;;;6.10;80.00;;;;;;5063695;28;20028;-83
2021/01/29 01:32:46;;;;;;;5.80;4.27;;;6.00;80.00;;;;;;5064617;28;20052;-82
2021/01/29 01:35:13;;;;;;;4.43;3.57;;;6.00;80.40;;;;;;5059887;28;20037;-82
2021/01/29 01:37:38;;;;;;;4.47;3.60;;;6.00;80.60;;;;;;5065921;28;20036;-82
2021/01/29 01:40:06;;;;;;;4.60;2.40;;;6.10;80.30;;;;;;5070782;28;20025;-82
2021/01/29 01:42:31;;;;;;;2.83;2.13;;;6.10;80.10;;;;;;5060044;28;20055;-82
2021/01/29 01:44:57;;;;;;;2.63;2.13;;;6.10;80.00;;;;;;5056089;28;20033;-82
2021/01/29 01:47:49;;;;;;;4.10;2.40;;;6.20;80.00;;;;;;5055184;28;20024;-82
2021/01/29 01:50:27;;;;;;;3.20;2.23;;;6.10;79.90;;;;;;5067048;28;20043;-82
2021/01/29 01:52:55;;;;;;;4.90;2.40;;;6.10;80.00;;;;;;5061700;28;20025;-82
2021/01/29 01:55:25;;;;;;;3.23;2.30;;;6.10;79.70;;;;;;5058770;28;20048;-82
2021/01/29 01:57:54;;;;;;;4.93;2.47;;;6.10;79.60;;;;;;5069232;28;20029;-82
2021/01/29 02:00:27;;;;;;;2.70;2.17;;;6.00;79.40;;;;;;5066888;28;20033;-82
2021/01/29 02:03:05;;;;;;;3.10;1.90;;;6.00;79.60;;;;;;5062290;28;20033;-82
2021/01/29 02:05:34;;;;;;;2.17;1.83;;;5.90;79.50;;;;;;5071583;28;20371;-82
2021/01/29 02:08:07;;;;;;;7.90;2.83;;;6.00;80.20;;;;;;5071112;28;20078;-82
2021/01/29 02:10:33;;;;;;;;;;;6.10;80.20;;;;;;5070110;28;20625;-82
2021/01/29 02:13:00;;;;;;;5.50;2.17;;;6.00;79.20;;;;;;5071579;28;19944;-82
2021/01/29 02:15:30;;;;;;;8.90;4.00;;;5.90;79.40;;;;;;5065776;28;20029;-82
2021/01/29 02:18:01;;;;;;;4.40;2.50;;;5.90;79.50;;;;;;5083796;28;20082;-82
2021/01/29 02:20:52;;;;;;;5.60;2.40;;;5.90;79.80;;;;;;5063719;28;20494;-82
2021/01/29 02:23:51;;;;;;;4.87;3.53;;;5.90;79.70;;;;;;5059605;28;20089;-82
2021/01/29 02:26:40;;;;;;;4.47;2.80;;;6.00;80.00;;;;;;5068708;28;20641;-82
2021/01/29 02:29:34;;;;;;;4.60;3.70;;;6.00;79.90;;;;;;5070378;28;20471;-81
2021/01/29 02:32:18;;;;;;;;;;;6.10;79.80;;;;;;5088985;28;20048;-82
2021/01/29 02:35:17;;;;;;;5.57;3.93;;;6.00;79.30;;;;;;5071694;28;19915;-82
2021/01/29 02:38:07;;;;;;;8.90;5.80;;;6.00;79.60;;;;;;5063426;28;20450;-82
2021/01/29 02:40:48;;;;;;;12.83;8.67;;;6.00;79.60;;;;;;5064201;28;20032;-82
2021/01/29 02:43:32;;;;;;;13.73;9.50;;;6.00;79.60;;;;;;5063087;28;20029;-82
2021/01/29 02:46:08;;;;;;;16.97;12.60;;;6.00;79.60;;;;;;5071266;28;20120;-82
2021/01/29 02:48:58;;;;;;;18.40;13.43;;;6.00;79.60;;;;;;5062395;28;20025;-82
2021/01/29 02:51:31;;;;;;;11.33;7.33;;;6.00;79.60;;;;;;5089350;28;20028;-82
2021/01/29 02:54:08;;;;;;;11.88;8.82;;;6.00;79.30;;;;;;5056830;28;20033;-82
2021/01/29 02:56:47;;;;;;;14.67;9.80;;;5.90;79.50;;;;;;5061819;28;20025;-82
2021/01/29 02:59:38;;;;;;;9.40;7.37;;;5.90;79.70;;;;;;5065691;28;20024;-82
2021/01/29 03:02:10;;;;;;;12.73;8.70;;;5.80;79.70;;;;;;5070342;28;20028;-82
2021/01/29 03:05:05;;;;;;;10.10;8.10;;;5.80;79.80;;;;;;5068229;28;20438;-82
2021/01/29 03:07:58;;;;;;;12.70;8.77;;;5.90;80.00;;;;;;5073112;28;20024;-82
2021/01/29 03:10:32;;;;;;;11.43;8.90;;;5.90;79.80;;;;;;5073068;28;20032;-82
2021/01/29 03:13:04;;;;;;;17.63;12.93;;;5.90;79.70;;;;;;5070261;28;20016;-82
2021/01/29 03:15:54;;;;;;;16.77;12.97;;;5.90;79.80;;;;;;5065468;28;20050;-82
2021/01/29 03:18:40;;;;;;;26.87;17.57;;;5.90;79.70;;;;;;5071959;28;20030;-82
2021/01/29 03:21:12;;;;;;;20.07;14.20;;;5.90;79.60;;;;;;5077134;28;20043;-82
2021/01/29 03:23:45;;;;;;;22.60;14.20;;;5.90;79.50;;;;;;5063308;28;20063;-82
2021/01/29 03:26:31;;;;;;;18.43;13.50;;;5.90;79.60;;;;;;5072406;28;20436;-81
2021/01/29 03:29:05;;;;;;;16.80;11.80;;;5.90;79.70;;;;;;5064635;28;20386;-81
2021/01/29 03:31:33;;;;;;;16.30;10.63;;;5.90;79.40;;;;;;5055353;28;20368;-81
2021/01/29 03:34:14;;;;;;;20.37;11.40;;;5.90;79.60;;;;;;5061828;28;20033;-81
2021/01/29 03:36:49;;;;;;;19.33;11.33;;;5.90;80.00;;;;;;5071487;28;20035;-81
2021/01/29 03:39:22;;;;;;;19.97;13.30;;;5.90;79.70;;;;;;5072096;28;20402;-81
2021/01/29 03:41:58;;;;;;;21.03;15.47;;;5.90;79.50;;;;;;5065872;28;20033;-81
2021/01/29 03:44:30;;;;;;;27.53;15.07;;;5.90;79.60;;;;;;5070464;28;20021;-81
2021/01/29 03:47:08;;;;;;;25.10;16.10;;;5.90;79.50;;;;;;5072066;28;20480;-81
2021/01/29 03:49:46;;;;;;;22.90;13.30;;;5.90;79.50;;;;;;5071471;28;20520;-81
2021/01/29 03:52:18;;;;;;;19.47;10.97;;;5.80;79.50;;;;;;5070211;28;20166;-81
2021/01/29 03:54:46;;;;;;;20.38;9.73;;;5.80;79.40;;;;;;5079918;28;20082;-81
2021/01/29 03:57:29;;;;;;;21.27;10.33;;;5.90;79.70;;;;;;5066832;28;20491;-81
2021/01/29 04:00:24;;;;;;;22.13;12.15;;;5.90;79.40;;;;;;5057632;28;20021;-81
2021/01/29 04:02:58;;;;;;;26.10;10.73;;;5.90;79.30;;;;;;5058710;28;20021;-81
2021/01/29 04:05:55;;;;;;;20.43;9.97;;;5.90;79.40;;;;;;5055541;28;20047;-82
2021/01/29 04:08:46;;;;;;;20.03;10.10;;;5.90;79.30;;;;;;5059726;28;20447;-82
2021/01/29 04:11:20;;;;;;;32.90;15.60;;;5.90;79.40;;;;;;5069547;28;20024;-82
2021/01/29 04:13:56;;;;;;;47.93;22.03;;;5.90;79.50;;;;;;5074188;28;20119;-82
2021/01/29 04:16:37;;;;;;;46.23;21.23;;;6.00;79.70;;;;;;5068411;28;20090;-82
2021/01/29 04:19:08;;;;;;;59.53;25.20;;;6.00;79.30;;;;;;5069406;28;20025;-83
2021/01/29 04:21:44;;;;;;;62.30;28.20;;;6.10;79.30;;;;;;5063286;28;20387;-83
2021/01/29 04:24:17;;;;;;;58.17;25.57;;;6.10;79.10;;;;;;5059557;28;20081;-83
2021/01/29 04:27:17;;;;;;;27.97;13.87;;;6.10;78.80;;;;;;5065942;28;20055;-82
2021/01/29 04:29:52;;;;;;;32.50;16.53;;;6.10;78.70;;;;;;5062339;28;20032;-82
2021/01/29 04:32:23;;;;;;;31.87;17.17;;;6.00;78.60;;;;;;5061710;28;20044;-82
2021/01/29 04:34:53;;;;;;;28.60;15.00;;;5.90;78.90;;;;;;5062491;28;20353;-82
2021/01/29 04:37:27;;;;;;;21.93;12.43;;;5.90;79.10;;;;;;5062108;28;20041;-82
2021/01/29 04:39:57;;;;;;;24.30;14.97;;;6.00;79.50;;;;;;5074123;28;20110;-82
2021/01/29 04:42:44;;;;;;;16.47;10.60;;;6.10;79.60;;;;;;5070469;28;20028;-82
2021/01/29 04:45:34;;;;;;;17.37;13.07;;;6.40;79.70;;;;;;5060102;28;20043;-82
2021/01/29 04:48:43;;;;;;;18.20;14.30;;;6.60;78.50;;;;;;5056580;28;20017;-82
2021/01/29 04:51:21;;;;;;;21.40;15.70;;;6.60;78.10;;;;;;5053866;28;20200;-82
2021/01/29 04:53:50;;;;;;;21.97;15.17;;;6.50;78.30;;;;;;5064966;28;20036;-82
2021/01/29 04:56:34;;;;;;;22.20;14.93;;;6.40;78.20;;;;;;5064126;28;20032;-82
2021/01/29 04:59:22;;;;;;;24.37;15.03;;;6.40;78.50;;;;;;5072671;28;20032;-82
2021/01/29 05:02:19;;;;;;;17.20;12.47;;;6.30;78.70;;;;;;5071262;28;20144;-82
2021/01/29 05:04:53;;;;;;;17.70;13.77;;;6.30;78.80;;;;;;5073599;28;20033;-82
2021/01/29 05:07:19;;;;;;;21.67;15.10;;;6.20;78.80;;;;;;5074092;28;20494;-82
2021/01/29 05:10:02;;;;;;;20.43;13.57;;;6.20;78.80;;;;;;5067967;28;20122;-81
2021/01/29 05:12:53;;;;;;;20.88;15.02;;;6.20;78.80;;;;;;5068815;28;20041;-81
2021/01/29 05:15:56;;;;;;;25.93;17.07;;;6.20;78.80;;;;;;5060143;28;20514;-81
2021/01/29 05:18:41;;;;;;;25.20;17.13;;;6.20;78.90;;;;;;5063582;28;20090;-82
2021/01/29 05:21:34;;;;;;;22.17;14.53;;;6.20;78.80;;;;;;5082519;28;20119;-82
2021/01/29 05:24:58;;;;;;;25.00;18.33;;;6.10;78.90;;;;;;5079833;28;20763;-82
2021/01/29 05:27:38;;;;;;;;;;;6.10;78.80;;;;;;5057936;28;20055;-82
2021/01/29 05:30:32;;;;;;;30.43;20.87;;;6.10;78.50;;;;;;5068160;28;19908;-82
2021/01/29 05:33:06;;;;;;;24.07;18.20;;;6.00;78.90;;;;;;5069824;28;20060;-82
2021/01/29 05:35:44;;;;;;;19.77;14.50;;;6.00;78.90;;;;;;5069395;28;20544;-82
2021/01/29 05:38:17;;;;;;;39.50;24.23;;;6.10;78.90;;;;;;5073779;28;20027;-82
2021/01/29 05:40:55;;;;;;;31.33;21.50;;;6.10;79.00;;;;;;5072928;28;20456;-82
2021/01/29 05:43:39;;;;;;;26.37;17.20;;;6.10;78.90;;;;;;5075628;28;20429;-82
2021/01/29 05:46:23;;;;;;;24.17;16.33;;;6.10;78.80;;;;;;5073154;28;20025;-82
2021/01/29 05:49:08;;;;;;;23.17;17.87;;;6.10;78.90;;;;;;5073639;28;20027;-82
2021/01/29 05:51:55;;;;;;;28.17;19.73;;;6.10;78.90;;;;;;5069840;28;20025;-82
2021/01/29 05:54:58;;;;;;;37.00;20.20;;;6.10;78.90;;;;;;5070672;28;20071;-82
2021/01/29 05:58:07;;;;;;;42.78;22.25;;;6.00;78.90;;;;;;5055027;28;20025;-82
2021/01/29 06:00:55;;;;;;;41.30;24.23;;;6.00;78.80;;;;;;5063105;28;20051;-82
2021/01/29 06:03:39;;;;;;;40.37;22.23;;;6.00;78.90;;;;;;5086321;28;20120;-82
2021/01/29 06:06:14;;;;;;;47.27;22.93;;;6.00;78.90;;;;;;5072234;28;20035;-82
2021/01/29 06:09:18;;;;;;;42.53;22.90;;;6.00;79.00;;;;;;5076948;28;20821;-82
2021/01/29 06:11:59;;;;;;;32.83;19.10;;;6.00;79.00;;;;;;5059949;28;20032;-82
2021/01/29 06:14:57;;;;;;;64.40;32.07;;;5.90;79.00;;;;;;5068926;28;20085;-81
2021/01/29 06:18:00;;;;;;;20.47;15.57;;;6.00;79.30;;;;;;5061462;28;20021;-81
2021/01/29 06:20:45;;;;;;;25.33;16.40;;;6.00;79.40;;;;;;5072441;28;20031;-81
2021/01/29 06:23:30;;;;;;;30.23;18.43;;;6.00;79.50;;;;;;5072571;28;20127;-81
2021/01/29 06:26:05;;;;;;;18.87;14.53;;;6.10;79.30;;;;;;5064860;28;20036;-81
2021/01/29 06:29:08;;;;;;;17.57;13.80;;;6.10;79.10;;;;;;5064271;28;20418;-81
2021/01/29 06:31:56;;;;;;;40.50;14.38;;;6.00;78.80;;;;;;5069234;28;20028;-81
2021/01/29 06:35:26;;;;;;;15.30;12.23;;;6.00;79.10;;;;;;5069974;28;20070;-82
2021/01/29 06:38:04;;;;;;;16.43;12.47;;;5.90;79.80;;;;;;5030664;28;20411;-82
2021/01/29 06:40:57;;;;;;;16.07;11.27;;;6.00;80.40;;;;;;5031078;28;20030;-82
2021/01/29 06:43:34;;;;;;;23.05;14.95;;;6.00;79.90;;;;;;5067110;28;20083;-81
2021/01/29 06:46:28;;;;;;;24.57;17.80;;;6.00;79.20;;;;;;5063407;28;20029;-81
2021/01/29 06:49:25;;;;;;;20.43;14.13;;;5.80;79.90;;;;;;5071379;28;20025;-81
2021/01/29 06:52:13;;;;;;;12.40;9.50;;;5.80;80.20;;;;;;5071880;28;20031;-81
2021/01/29 06:55:11;;;;;;;12.20;9.27;;;6.00;80.40;;;;;;5058105;28;20112;-81
2021/01/29 06:58:08;;;;;;;13.37;9.80;;;6.10;79.90;;;;;;5052237;28;20059;-81
2021/01/29 07:01:01;;;;;;;14.80;10.60;;;6.10;80.10;;;;;;5066986;28;20086;-82
2021/01/29 07:03:48;;;;;;;12.57;9.07;;;6.30;79.40;;;;;;5052596;28;20025;-82
2021/01/29 07:06:27;;;;;;;18.03;10.23;;;6.50;79.80;;;;;;5060215;28;20108;-82
2021/01/29 07:09:20;;;;;;;19.40;11.20;;;6.60;78.90;;;;;;5071681;28;20013;-82
2021/01/29 07:12:08;;;;;;;21.10;15.03;;;6.70;78.30;;;;;;5072428;28;20044;-82
2021/01/29 07:15:16;;;;;;;16.67;12.13;;;6.70;78.30;;;;;;5073240;28;20029;-82
2021/01/29 07:17:53;;;;;;;15.23;10.70;;;6.70;78.00;;;;;;5061543;28;20029;-82
2021/01/29 07:20:48;;;;;;;14.57;10.13;;;6.50;77.80;;;;;;5058184;28;20025;-82
2021/01/29 07:23:24;;;;;;;14.23;10.10;;;6.40;78.30;;;;;;5069210;28;20028;-82
2021/01/29 07:26:06;;;;;;;17.80;11.33;;;6.20;78.70;;;;;;5073315;28;20048;-82
2021/01/29 07:28:51;;;;;;;22.58;11.60;;;6.20;79.20;;;;;;5073420;28;20306;-82
2021/01/29 07:31:31;;;;;;;25.57;15.63;;;6.30;79.80;;;;;;5066500;28;20032;-82
2021/01/29 07:34:15;;;;;;;25.20;15.27;;;6.30;79.10;;;;;;5071143;28;20036;-82
2021/01/29 07:36:57;;;;;;;23.63;15.57;;;6.40;79.50;;;;;;5072701;28;20033;-82
2021/01/29 07:40:01;;;;;;;19.25;12.02;;;6.50;79.20;;;;;;5070805;28;20036;-82
2021/01/29 07:42:45;;;;;;;17.27;12.17;;;6.50;78.80;;;;;;5061092;28;20056;-82
2021/01/29 07:45:35;;;;;;;21.30;13.93;;;6.40;78.90;;;;;;5058207;28;20024;-82
2021/01/29 07:48:51;;;;;;;31.70;19.27;;;6.40;78.90;;;;;;5063843;28;20110;-82
2021/01/29 07:51:30;;;;;;;27.53;19.67;;;6.40;79.30;;;;;;5053640;28;20037;-82
2021/01/29 07:54:17;;;;;;;25.10;17.33;;;6.40;79.10;;;;;;5069830;28;20048;-82
2021/01/29 07:57:06;;;;;;;26.30;18.07;;;6.50;79.40;;;;;;5064331;28;20039;-82
2021/01/29 07:59:38;;;;;;;25.50;17.60;;;6.60;79.30;;;;;;5067501;28;20032;-83
2021/01/29 08:02:35;;;;;;;21.73;15.40;;;6.60;79.10;;;;;;5068255;28;20036;-82
2021/01/29 08:05:21;;;;;;;27.50;14.47;;;6.60;79.00;;;;;;5060195;28;20053;-82
2021/01/29 08:07:52;;;;;;;22.53;13.53;;;6.60;78.80;;;;;;5067350;28;20040;-82
2021/01/29 08:10:40;;;;;;;24.50;12.83;;;6.60;79.00;;;;;;5075395;28;20032;-82
2021/01/29 08:13:29;;;;;;;17.10;11.97;;;6.60;78.80;;;;;;5072764;28;20055;-82
2021/01/29 08:16:33;;;;;;;35.43;18.80;;;6.60;79.10;;;;;;5071284;28;20033;-83
2021/01/29 08:19:18;;;;;;;36.43;15.03;;;6.60;78.90;;;;;;5075637;28;20052;-82
2021/01/29 08:22:32;;;;;;;20.73;13.70;;;6.70;79.20;;;;;;5070616;28;20075;-82
2021/01/29 08:25:17;;;;;;;;;;;6.70;79.00;;;;;;5058253;28;20039;-82
2021/01/29 08:27:55;;;;;;;31.47;18.00;;;6.80;78.90;;;;;;5076748;28;20465;-83
2021/01/29 08:30:55;;;;;;;19.63;12.40;;;6.80;78.70;;;;;;5077178;28;20027;-82
2021/01/29 08:33:51;;;;;;;16.67;11.93;;;6.80;78.80;;;;;;5056358;28;20049;-82
2021/01/29 08:36:31;;;;;;;19.90;12.50;;;6.90;79.00;;;;;;5071915;28;20028;-82
2021/01/29 08:39:00;;;;;;;24.17;14.40;;;6.90;79.00;;;;;;5067887;28;20036;-82
2021/01/29 08:41:41;;;;;;;18.07;13.13;;;7.00;78.80;;;;;;5055653;28;20115;-82
2021/01/29 08:44:15;;;;;;;21.87;14.03;;;7.00;78.80;;;;;;5073651;28;20505;-82
2021/01/29 08:46:52;;;;;;;20.10;13.93;;;6.90;78.50;;;;;;5061602;28;20582;-82
2021/01/29 08:49:47;;;;;;;16.03;12.73;;;7.00;78.90;;;;;;5074675;28;20111;-83
2021/01/29 08:52:31;;;;;;;19.97;13.97;;;6.90;78.40;;;;;;5063659;28;20024;-82
2021/01/29 08:55:15;;;;;;;15.50;11.87;;;6.90;78.60;;;;;;5071569;28;20060;-82
2021/01/29 08:57:54;;;;;;;16.43;12.07;;;6.90;78.70;;;;;;5058047;28;20489;-82
2021/01/29 09:00:32;;;;;;;16.93;12.90;;;6.90;78.80;;;;;;5064857;28;20356;-84
2021/01/29 09:03:01;;;;;;;15.77;11.07;;;7.00;78.90;;;;;;5063489;28;20021;-83
2021/01/29 09:05:30;;;;;;;21.23;13.57;;;7.00;78.70;;;;;;5065823;28;20031;-83
2021/01/29 09:08:01;;;;;;;17.07;10.97;;;7.00;78.50;;;;;;5059666;28;20041;-83
2021/01/29 09:11:04;;;;;;;25.47;18.80;;;7.10;79.00;;;;;;5070921;28;20336;-83
2021/01/29 09:13:32;;;;;;;23.35;17.52;;;7.10;78.20;;;;;;5058264;28;20023;-82
2021/01/29 09:16:31;;;;;;;19.33;12.33;;;6.90;78.40;;;;;;5086605;28;20036;-82
2021/01/29 09:19:05;;;;;;;25.03;15.33;;;6.90;79.00;;;;;;5071171;28;20040;-82
2021/01/29 09:22:05;;;;;;;20.50;12.80;;;6.90;78.90;;;;;;5066715;28;20033;-82
2021/01/29 09:24:42;;;;;;;21.93;13.30;;;7.00;79.00;;;;;;5070351;28;20028;-82
2021/01/29 09:27:26;;;;;;;17.43;10.10;;;7.10;78.90;;;;;;5074816;28;20029;-82
2021/01/29 09:29:59;;;;;;;15.00;9.97;;;7.10;78.90;;;;;;5077191;28;20021;-82
2021/01/29 09:32:51;;;;;;;17.27;10.73;;;7.40;78.20;;;;;;5071684;28;20063;-82
2021/01/29 09:35:44;;;;;;;13.57;8.60;;;7.30;77.90;;;;;;5059954;28;20040;-82
2021/01/29 09:38:15;;;;;;;13.93;9.07;;;7.20;78.10;;;;;;5069186;28;20040;-82
2021/01/29 09:41:00;;;;;;;16.70;10.07;;;7.10;78.50;;;;;;5073994;28;20430;-82
2021/01/29 09:43:45;;;;;;;14.73;8.93;;;7.10;78.60;;;;;;5074507;28;20024;-82
2021/01/29 09:46:12;;;;;;;14.67;9.63;;;7.10;78.80;;;;;;5073109;28;20048;-82
2021/01/29 09:48:41;;;;;;;19.23;12.00;;;7.00;79.30;;;;;;5070800;28;20360;-82
2021/01/29 09:51:33;;;;;;;12.33;8.27;;;7.20;79.70;;;;;;5073435;28;20035;-82
2021/01/29 09:54:20;;;;;;;19.87;12.70;;;7.40;79.40;;;;;;5070467;28;20036;-82
2021/01/29 09:56:55;;;;;;;21.03;13.07;;;7.50;78.80;;;;;;5059578;28;20126;-82
2021/01/29 09:59:23;;;;;;;17.13;12.20;;;7.50;78.90;;;;;;5071989;28;20062;-82
2021/01/29 10:02:19;;;;;;;15.53;10.17;;;7.60;78.90;;;;;;5072864;28;20098;-82
2021/01/29 10:05:12;;;;;;;18.00;9.10;;;7.60;78.70;;;;;;5061402;28;20040;-83
2021/01/29 10:07:41;;;;;;;;;;;7.50;79.10;;;;;;5054964;28;20028;-83
2021/01/29 10:10:31;;;;;;;18.83;12.07;;;7.60;78.80;;;;;;5070859;28;20368;-83
2021/01/29 10:13:10;;;;;;;16.60;11.43;;;7.50;78.90;;;;;;5056010;28;20103;-83
2021/01/29 10:15:39;;;;;;;13.80;10.33;;;7.50;79.30;;;;;;5057084;28;20036;-82
2021/01/29 10:18:22;;;;;;;15.33;9.90;;;7.40;79.30;;;;;;5056736;28;20171;-83
2021/01/29 10:20:47;;;;;;;;;;;7.40;79.50;;;;;;5066130;28;20072;-83
2021/01/29 10:23:37;;;;;;;17.23;9.87;;;7.40;79.70;;;;;;5068795;28;20501;-83
2021/01/29 10:26:10;;;;;;;12.57;9.00;;;7.40;79.50;;;;;;5055378;28;20028;-83
2021/01/29 10:28:41;;;;;;;13.97;10.17;;;7.40;79.40;;;;;;5058951;28;20021;-83
2021/01/29 10:31:08;;;;;;;14.03;10.80;;;7.50;79.50;;;;;;5060339;28;20055;-83
2021/01/29 10:33:38;;;;;;;15.97;8.87;;;7.50;79.40;;;;;;5074525;28;20049;-83
2021/01/29 10:36:11;;;;;;;15.40;9.40;;;7.50;79.50;;;;;;5057031;28;20025;-83
2021/01/29 10:38:58;;;;;;;17.73;10.43;;;7.50;80.10;;;;;;5066174;28;20471;-83
2021/01/29 10:41:39;;;;;;;31.60;21.00;;;7.50;79.60;;;;;;5069768;28;20029;-83
2021/01/29 10:44:10;;;;;;;28.70;18.37;;;7.50;79.50;;;;;;5069335;28;20387;-83
2021/01/29 10:47:11;;;;;;;24.57;15.00;;;7.50;79.80;;;;;;5062098;28;20020;-83
2021/01/29 10:49:53;;;;;;;22.93;14.10;;;7.70;79.70;;;;;;5068393;28;20074;-82
2021/01/29 10:52:39;;;;;;;12.32;9.27;;;7.80;79.40;;;;;;5064153;28;20383;-82
2021/01/29 10:55:20;;;;;;;14.27;8.90;;;7.80;79.30;;;;;;5065775;28;20029;-82
2021/01/29 10:57:55;;;;;;;16.23;9.73;;;8.00;79.30;;;;;;5073780;28;20021;-83
2021/01/29 11:00:24;;;;;;;17.23;8.70;;;8.20;79.10;;;;;;5071902;28;20036;-84
2021/01/29 11:03:06;;;;;;;17.97;9.77;;;8.20;78.90;;;;;;5067283;28;20020;-82
2021/01/29 11:05:35;;;;;;;10.68;8.43;;;8.40;79.40;;;;;;5064259;28;20078;-81
2021/01/29 11:08:28;;;;;;;19.37;12.83;;;8.70;78.80;;;;;;5071490;28;20509;-81
2021/01/29 11:11:24;;;;;;;13.00;9.43;;;9.20;78.50;;;;;;5078746;28;20499;-82
2021/01/29 11:14:05;;;;;;;13.73;9.33;;;9.70;78.10;;;;;;5065834;28;20116;-82
2021/01/29 11:17:18;;;;;;;9.47;7.43;;;10.00;77.50;;;;;;5060820;28;20021;-82
2021/01/29 11:19:49;;;;;;;12.67;7.70;;;10.30;76.40;;;;;;5055861;28;20606;-83
2021/01/29 11:22:32;;;;;;;15.40;7.87;;;10.30;76.20;;;;;;5060575;28;20028;-82
2021/01/29 11:25:04;;;;;;;;;;;10.50;76.40;;;;;;5061585;28;20025;-82
2021/01/29 11:28:01;;;;;;;14.87;8.60;;;10.60;76.00;;;;;;5072799;28;19908;-82
2021/01/29 11:30:31;;;;;;;10.63;6.03;;;10.60;76.10;;;;;;5061606;28;20116;-83
2021/01/29 11:33:03;;;;;;;10.03;6.60;;;10.60;75.70;;;;;;5068254;28;20055;-83
2021/01/29 11:35:37;;;;;;;9.63;5.70;;;10.50;75.70;;;;;;5064193;28;20071;-82
2021/01/29 11:38:46;;;;;;;7.50;6.27;;;10.40;74.60;;;;;;5070192;28;20040;-82
2021/01/29 11:41:40;;;;;;;8.23;5.80;;;10.20;74.80;;;;;;5062747;28;20124;-82
2021/01/29 11:44:26;;;;;;;8.73;6.57;;;10.10;74.80;;;;;;5067967;28;20457;-83
2021/01/29 11:47:18;;;;;;;8.73;6.43;;;10.20;75.00;;;;;;5061243;28;20101;-82
2021/01/29 11:50:01;;;;;;;11.77;9.30;;;10.30;74.90;;;;;;5069839;28;20124;-82
2021/01/29 11:53:06;;;;;;;12.60;7.67;;;10.40;74.70;;;;;;5075386;28;20107;-82
2021/01/29 11:55:47;;;;;;;8.70;6.00;;;10.50;74.20;;;;;;5057798;28;20104;-82
2021/01/29 11:58:33;;;;;;;12.33;6.63;;;10.60;73.80;;;;;;5070470;28;20040;-82
2021/01/29 12:01:39;;;;;;;9.37;6.07;;;10.80;73.60;;;;;;5058431;28;20036;-83
2021/01/29 12:04:23;;;;;;;11.63;6.60;;;11.00;72.70;;;;;;5074112;28;20372;-82
2021/01/29 12:07:18;;;;;;;10.90;6.43;;;11.10;72.50;;;;;;5074697;28;20487;-82
2021/01/29 12:09:59;;;;;;;10.27;5.37;;;11.40;72.70;;;;;;5071487;28;20029;-82
2021/01/29 12:12:38;;;;;;;7.70;4.93;;;11.50;72.10;;;;;;5073786;28;20068;-82
2021/01/29 12:15:14;;;;;;;8.00;5.27;;;11.70;72.20;;;;;;5071771;28;20036;-82
2021/01/29 12:18:01;;;;;;;9.83;5.37;;;11.70;70.90;;;;;;5068171;28;20036;-82
2021/01/29 12:20:32;;;;;;;9.53;5.13;;;11.70;71.20;;;;;;5074391;28;20093;-82
2021/01/29 12:23:31;;;;;;;9.20;5.70;;;11.80;71.20;;;;;;5077485;28;20029;-82
2021/01/29 12:26:21;;;;;;;10.13;5.70;;;11.80;70.90;;;;;;5073749;28;20063;-82
2021/01/29 12:29:06;;;;;;;10.20;6.00;;;11.90;71.00;;;;;;5067052;28;20043;-82
2021/01/29 12:31:47;;;;;;;8.97;5.60;;;12.00;70.40;;;;;;5064632;28;20894;-83
2021/01/29 12:34:37;;;;;;;7.40;5.10;;;12.10;70.40;;;;;;5063232;28;20029;-82
2021/01/29 12:37:07;;;;;;;8.10;4.60;;;12.10;69.80;;;;;;5070943;28;20111;-82
2021/01/29 12:39:47;;;;;;;7.93;5.27;;;11.90;70.20;;;;;;5058657;28;20025;-82
2021/01/29 12:42:18;;;;;;;9.20;5.67;;;11.80;70.40;;;;;;5066928;28;20033;-82
2021/01/29 12:44:49;;;;;;;8.40;5.50;;;11.70;70.20;;;;;;5069276;28;20024;-82
2021/01/29 12:47:33;;;;;;;6.60;4.27;;;11.50;70.40;;;;;;5075517;28;20040;-82
2021/01/29 12:50:37;;;;;;;9.87;4.67;;;11.50;70.60;;;;;;5066452;28;20044;-83
2021/01/29 12:53:19;;;;;;;9.05;5.20;;;11.30;70.50;;;;;;5072672;28;20071;-82
2021/01/29 12:56:05;;;;;;;10.43;5.27;;;11.20;70.80;;;;;;5064557;28;20032;-82
2021/01/29 12:58:45;;;;;;;11.13;6.87;;;11.10;71.10;;;;;;5076898;28;20035;-82
2021/01/29 13:01:39;;;;;;;13.47;7.10;;;11.00;71.30;;;;;;5056681;28;20055;-82
2021/01/29 13:04:19;;;;;;;8.53;5.70;;;10.80;71.20;;;;;;5063241;28;20065;-82
2021/01/29 13:06:52;;;;;;;14.07;6.47;;;10.70;71.70;;;;;;5058883;28;20480;-81
2021/01/29 13:09:29;;;;;;;;;;;10.60;71.90;;;;;;5066283;28;20156;-82
2021/01/29 13:12:22;;;;;;;16.40;9.47;;;10.60;72.10;;;;;;5088634;28;19900;-82
2021/01/29 13:15:00;;;;;;;10.02;6.30;;;10.60;71.80;;;;;;5097207;28;20028;-81
2021/01/29 13:17:36;;;;;;;10.70;6.60;;;10.50;71.90;;;;;;5093230;28;20043;-80
2021/01/29 13:20:20;;;;;;;15.50;7.40;;;10.50;72.30;;;;;;5074053;28;20029;-81
2021/01/29 13:22:57;;;;;;;14.27;8.50;;;10.50;72.40;;;;;;5073276;28;20082;-81
2021/01/29 13:25:26;;;;;;;18.07;6.90;;;10.50;72.50;;;;;;5059198;28;20040;-82
2021/01/29 13:28:17;;;;;;;10.63;6.00;;;10.40;72.90;;;;;;5067940;28;20028;-82
2021/01/29 13:30:43;;;;;;;11.13;6.47;;;10.40;73.10;;;;;;5070829;28;20136;-81
2021/01/29 13:33:28;;;;;;;12.37;7.53;;;10.40;73.30;;;;;;5065598;28;20495;-82
2021/01/29 13:36:09;;;;;;;12.67;7.50;;;10.40;73.50;;;;;;5060653;28;20083;-82
2021/01/29 13:38:37;;;;;;;11.87;6.80;;;10.40;72.90;;;;;;5067545;28;20039;-82
2021/01/29 13:41:33;;;;;;;8.13;4.87;;;10.30;72.90;;;;;;5074491;28;20059;-82
2021/01/29 13:44:21;;;;;;;7.07;3.50;;;10.30;73.10;;;;;;5059603;28;20443;-82
2021/01/29 13:46:51;;;;;;;6.23;3.40;;;10.40;73.00;;;;;;5066534;28;20434;-82
2021/01/29 13:49:37;;;;;;;8.13;4.70;;;10.40;72.30;;;;;;5062176;28;20539;-82
2021/01/29 13:52:26;;;;;;;13.20;5.80;;;10.20;72.70;;;;;;5077661;28;20020;-82
2021/01/29 13:54:53;;;;;;;7.00;4.87;;;10.20;73.20;;;;;;5076737;28;20036;-82